sensor_id;sensor_type;location;lat;lon;timestamp;pressure;altitude;pressure_sealevel;temperature;humidity
64362;BME280;50685;53.346;-6.296;2023-02-22T00:04:59;100778.78;;;8.42;87.38
64362;BME280;50685;53.346;-6.296;2023-02-22T00:16:46;100799.97;;;8.31;88.97
64362;BME280;50685;53.346;-6.296;2023-02-22T00:19:16;100808.78;;;8.30;89.16
64362;BME280;50685;53.346;-6.296;2023-02-22T00:22:20;100810.56;;;8.25;89.09
64362;BME280;50685;53.346;-6.296;2023-02-22T00:25:17;100823.81;;;8.04;87.64
64362;BME280;50685;53.346;-6.296;2023-02-22T00:27:51;100837.03;;;7.97;85.83
64362;BME280;50685;53.346;-6.296;2023-02-22T00:30:35;100823.84;;;7.84;85.06
64362;BME280;50685;53.346;-6.296;2023-02-22T00:33:21;100838.81;;;7.75;84.50
64362;BME280;50685;53.346;-6.296;2023-02-22T00:41:42;100871.38;;;7.41;84.44
64362;BME280;50685;53.346;-6.296;2023-02-22T00:44:18;100873.09;;;7.40;84.31
64362;BME280;50685;53.346;-6.296;2023-02-22T00:49:43;100876.59;;;7.35;83.60
64362;BME280;50685;53.346;-6.296;2023-02-22T00:55:35;100891.53;;;7.19;83.13
64362;BME280;50685;53.346;-6.296;2023-02-22T00:58:44;100901.19;;;7.11;82.98
64362;BME280;50685;53.346;-6.296;2023-02-22T01:07:11;100906.41;;;6.97;82.24
64362;BME280;50685;53.346;-6.296;2023-02-22T01:09:48;100909.00;;;6.87;83.36
64362;BME280;50685;53.346;-6.296;2023-02-22T01:12:20;100910.75;;;6.84;84.17
64362;BME280;50685;53.346;-6.296;2023-02-22T02:42:16;100977.31;;;6.44;85.93
64362;BME280;50685;53.346;-6.296;2023-02-22T02:45:07;100979.91;;;6.39;85.92
64362;BME280;50685;53.346;-6.296;2023-02-22T02:47:55;100979.03;;;6.40;86.22
64362;BME280;50685;53.346;-6.296;2023-02-22T02:59:45;100989.53;;;6.39;85.12
64362;BME280;50685;53.346;-6.296;2023-02-22T03:34:39;100997.28;;;6.19;85.56
64362;BME280;50685;53.346;-6.296;2023-02-22T03:55:25;101022.66;;;6.07;85.11
64362;BME280;50685;53.346;-6.296;2023-02-22T04:06:56;101018.34;;;6.20;84.32
64362;BME280;50685;53.346;-6.296;2023-02-22T04:12:56;101025.28;;;6.09;85.20
64362;BME280;50685;53.346;-6.296;2023-02-22T04:24:50;101025.09;;;5.92;86.66
64362;BME280;50685;53.346;-6.296;2023-02-22T04:27:23;101031.25;;;5.92;87.49
64362;BME280;50685;53.346;-6.296;2023-02-22T04:38:43;101033.63;;;5.69;87.41
64362;BME280;50685;53.346;-6.296;2023-02-22T04:41:20;101040.56;;;5.61;87.58
64362;BME280;50685;53.346;-6.296;2023-02-22T04:53:13;101055.56;;;5.71;85.88
64362;BME280;50685;53.346;-6.296;2023-02-22T04:59:07;101066.97;;;5.70;83.49
64362;BME280;50685;53.346;-6.296;2023-02-22T05:07:49;101089.81;;;5.74;82.50
64362;BME280;50685;53.346;-6.296;2023-02-22T05:18:25;101099.50;;;5.75;81.92
64362;BME280;50685;53.346;-6.296;2023-02-22T05:20:56;101100.34;;;5.73;81.38
64362;BME280;50685;53.346;-6.296;2023-02-22T06:17:01;101164.91;;;5.47;81.99
64362;BME280;50685;53.346;-6.296;2023-02-22T06:39:21;101203.84;;;5.13;82.25
64362;BME280;50685;53.346;-6.296;2023-02-22T06:41:52;101195.84;;;5.07;82.04
64362;BME280;50685;53.346;-6.296;2023-02-22T06:54:35;101204.34;;;4.91;83.35
64362;BME280;50685;53.346;-6.296;2023-02-22T06:57:34;101209.53;;;4.88;83.95
64362;BME280;50685;53.346;-6.296;2023-02-22T07:00:22;101217.28;;;4.78;83.53
64362;BME280;50685;53.346;-6.296;2023-02-22T07:03:00;101218.91;;;4.72;84.16
64362;BME280;50685;53.346;-6.296;2023-02-22T07:08:34;101212.53;;;4.59;83.96
64362;BME280;50685;53.346;-6.296;2023-02-22T07:16:59;101213.41;;;4.59;83.92
64362;BME280;50685;53.346;-6.296;2023-02-22T07:19:30;101213.38;;;4.56;84.00
64362;BME280;50685;53.346;-6.296;2023-02-22T07:21:58;101214.16;;;4.52;83.87
64362;BME280;50685;53.346;-6.296;2023-02-22T07:24:24;101217.56;;;4.46;83.83
64362;BME280;50685;53.346;-6.296;2023-02-22T07:26:50;101208.78;;;4.46;84.37
64362;BME280;50685;53.346;-6.296;2023-02-22T07:29:16;101212.16;;;4.39;84.43
64362;BME280;50685;53.346;-6.296;2023-02-22T07:31:43;101207.72;;;4.34;84.45
64362;BME280;50685;53.346;-6.296;2023-02-22T07:34:08;101211.88;;;4.25;84.55
64362;BME280;50685;53.346;-6.296;2023-02-22T07:36:34;101220.63;;;4.24;85.08
64362;BME280;50685;53.346;-6.296;2023-02-22T07:38:59;101219.72;;;4.22;85.09
64362;BME280;50685;53.346;-6.296;2023-02-22T07:41:33;101231.09;;;4.22;85.43
64362;BME280;50685;53.346;-6.296;2023-02-22T07:47:22;101204.63;;;4.11;86.25
64362;BME280;50685;53.346;-6.296;2023-02-22T07:49:49;101228.91;;;4.44;85.48
64362;BME280;50685;53.346;-6.296;2023-02-22T07:52:15;101225.69;;;4.60;84.45
64362;BME280;50685;53.346;-6.296;2023-02-22T07:54:44;101224.31;;;4.81;83.58
64362;BME280;50685;53.346;-6.296;2023-02-22T07:57:09;101244.81;;;4.99;82.57
64362;BME280;50685;53.346;-6.296;2023-02-22T07:59:44;101254.59;;;5.09;81.86
64362;BME280;50685;53.346;-6.296;2023-02-22T08:02:27;101265.34;;;5.23;81.30
64362;BME280;50685;53.346;-6.296;2023-02-22T08:05:12;101272.44;;;5.27;80.78
64362;BME280;50685;53.346;-6.296;2023-02-22T08:08:06;101276.16;;;5.40;80.33
64362;BME280;50685;53.346;-6.296;2023-02-22T08:10:34;101273.72;;;5.53;79.19
64362;BME280;50685;53.346;-6.296;2023-02-22T08:13:00;101283.66;;;5.74;77.89
64362;BME280;50685;53.346;-6.296;2023-02-22T08:15:36;101279.84;;;6.08;76.62
64362;BME280;50685;53.346;-6.296;2023-02-22T08:18:02;101281.84;;;6.28;75.54
64362;BME280;50685;53.346;-6.296;2023-02-22T08:20:28;101285.78;;;6.64;74.22
64362;BME280;50685;53.346;-6.296;2023-02-22T08:22:54;101280.75;;;6.89;73.05
64362;BME280;50685;53.346;-6.296;2023-02-22T08:25:20;101296.63;;;6.92;72.77
64362;BME280;50685;53.346;-6.296;2023-02-22T08:27:46;101289.59;;;6.93;72.28
64362;BME280;50685;53.346;-6.296;2023-02-22T08:30:21;101296.50;;;6.81;72.12
64362;BME280;50685;53.346;-6.296;2023-02-22T08:32:47;101302.28;;;6.49;73.51
64362;BME280;50685;53.346;-6.296;2023-02-22T08:35:13;101301.91;;;6.20;74.74
64362;BME280;50685;53.346;-6.296;2023-02-22T08:37:42;101303.28;;;5.93;75.62
64362;BME280;50685;53.346;-6.296;2023-02-22T08:40:08;101294.63;;;5.43;76.58
64362;BME280;50685;53.346;-6.296;2023-02-22T08:42:34;101301.88;;;5.60;77.15
64362;BME280;50685;53.346;-6.296;2023-02-22T08:44:59;101301.50;;;5.93;76.04
64362;BME280;50685;53.346;-6.296;2023-02-22T08:47:25;101291.63;;;6.38;74.90
64362;BME280;50685;53.346;-6.296;2023-02-22T08:49:50;101288.53;;;6.77;72.32
64362;BME280;50685;53.346;-6.296;2023-02-22T08:52:16;101297.66;;;7.08;71.10
64362;BME280;50685;53.346;-6.296;2023-02-22T08:54:41;101304.03;;;7.30;69.67
64362;BME280;50685;53.346;-6.296;2023-02-22T08:57:09;101294.47;;;7.48;68.25
64362;BME280;50685;53.346;-6.296;2023-02-22T08:59:37;101300.81;;;7.67;67.94
64362;BME280;50685;53.346;-6.296;2023-02-22T09:02:02;101299.13;;;7.81;66.36
64362;BME280;50685;53.346;-6.296;2023-02-22T09:04:28;101295.72;;;8.02;65.82
64362;BME280;50685;53.346;-6.296;2023-02-22T09:06:53;101300.31;;;8.36;64.91
64362;BME280;50685;53.346;-6.296;2023-02-22T09:09:21;101298.72;;;8.71;63.94
64362;BME280;50685;53.346;-6.296;2023-02-22T09:12:15;101298.75;;;8.83;62.96
64362;BME280;50685;53.346;-6.296;2023-02-22T09:14:40;101302.31;;;8.91;62.10
64362;BME280;50685;53.346;-6.296;2023-02-22T09:17:07;101297.91;;;9.06;61.26
64362;BME280;50685;53.346;-6.296;2023-02-22T09:19:32;101298.78;;;9.02;60.93
64362;BME280;50685;53.346;-6.296;2023-02-22T09:21:58;101309.41;;;9.19;60.77
64362;BME280;50685;53.346;-6.296;2023-02-22T09:24:28;101323.53;;;9.48;59.92
64362;BME280;50685;53.346;-6.296;2023-02-22T09:26:56;101316.44;;;9.77;59.36
64362;BME280;50685;53.346;-6.296;2023-02-22T09:29:24;101326.16;;;9.87;58.50
64362;BME280;50685;53.346;-6.296;2023-02-22T09:31:53;101316.47;;;9.85;57.76
64362;BME280;50685;53.346;-6.296;2023-02-22T09:34:19;101325.28;;;9.88;57.85
64362;BME280;50685;53.346;-6.296;2023-02-22T09:36:51;101309.34;;;10.02;57.60
64362;BME280;50685;53.346;-6.296;2023-02-22T09:39:17;101303.09;;;10.25;56.21
64362;BME280;50685;53.346;-6.296;2023-02-22T09:46:51;101318.13;;;10.29;55.71
64362;BME280;50685;53.346;-6.296;2023-02-22T09:49:20;101325.16;;;10.53;55.38
64362;BME280;50685;53.346;-6.296;2023-02-22T09:54:28;101332.91;;;10.90;53.33
64362;BME280;50685;53.346;-6.296;2023-02-22T09:57:01;101339.72;;;11.35;52.86
64362;BME280;50685;53.346;-6.296;2023-02-22T09:59:33;101340.44;;;11.55;51.80
64362;BME280;50685;53.346;-6.296;2023-02-22T10:02:01;101336.38;;;12.15;49.77
64362;BME280;50685;53.346;-6.296;2023-02-22T10:04:41;101324.88;;;12.15;49.83
64362;BME280;50685;53.346;-6.296;2023-02-22T10:07:30;101326.72;;;12.08;49.60
64362;BME280;50685;53.346;-6.296;2023-02-22T10:09:57;101336.22;;;12.31;48.99
64362;BME280;50685;53.346;-6.296;2023-02-22T10:27:14;101356.97;;;13.41;46.16
64362;BME280;50685;53.346;-6.296;2023-02-22T10:29:40;101359.72;;;13.33;46.61
64362;BME280;50685;53.346;-6.296;2023-02-22T10:32:11;101351.09;;;13.14;45.61
64362;BME280;50685;53.346;-6.296;2023-02-22T10:34:40;101359.44;;;12.90;46.54
64362;BME280;50685;53.346;-6.296;2023-02-22T10:39:41;101369.13;;;12.20;47.11
64362;BME280;50685;53.346;-6.296;2023-02-22T10:42:08;101373.06;;;11.70;49.16
64362;BME280;50685;53.346;-6.296;2023-02-22T10:44:34;101378.75;;;11.20;51.31
64362;BME280;50685;53.346;-6.296;2023-02-22T10:47:00;101378.19;;;10.49;51.72
64362;BME280;50685;53.346;-6.296;2023-02-22T10:49:29;101375.53;;;10.53;52.17
64362;BME280;50685;53.346;-6.296;2023-02-22T10:52:01;101382.63;;;10.31;51.63
64362;BME280;50685;53.346;-6.296;2023-02-22T10:54:30;101379.97;;;10.34;52.84
64362;BME280;50685;53.346;-6.296;2023-02-22T10:56:58;101391.47;;;10.27;53.47
64362;BME280;50685;53.346;-6.296;2023-02-22T10:59:31;101391.47;;;10.41;53.11
64362;BME280;50685;53.346;-6.296;2023-02-22T11:02:00;101395.84;;;10.36;52.87
64362;BME280;50685;53.346;-6.296;2023-02-22T11:04:43;101394.09;;;10.35;53.82
64362;BME280;50685;53.346;-6.296;2023-02-22T11:09:47;101387.00;;;10.65;52.58
64362;BME280;50685;53.346;-6.296;2023-02-22T11:12:24;101381.69;;;10.61;52.82
64362;BME280;50685;53.346;-6.296;2023-02-22T11:14:50;101392.31;;;10.63;53.08
64362;BME280;50685;53.346;-6.296;2023-02-22T11:17:25;101385.28;;;10.43;52.58
64362;BME280;50685;53.346;-6.296;2023-02-22T11:19:55;101395.88;;;10.19;53.35
64362;BME280;50685;53.346;-6.296;2023-02-22T11:22:22;101385.31;;;9.92;54.11
64362;BME280;50685;53.346;-6.296;2023-02-22T11:24:54;101395.91;;;10.05;54.81
64362;BME280;50685;53.346;-6.296;2023-02-22T11:27:24;101398.56;;;10.11;53.90
64362;BME280;50685;53.346;-6.296;2023-02-22T11:29:50;101406.50;;;10.11;54.14
64362;BME280;50685;53.346;-6.296;2023-02-22T11:32:25;101405.63;;;10.03;55.84
64362;BME280;50685;53.346;-6.296;2023-02-22T11:34:53;101409.13;;;10.29;53.98
64362;BME280;50685;53.346;-6.296;2023-02-22T11:37:41;101412.66;;;10.32;54.74
64362;BME280;50685;53.346;-6.296;2023-02-22T11:40:42;101416.22;;;10.37;54.42
64362;BME280;50685;53.346;-6.296;2023-02-22T11:43:07;101415.31;;;10.28;53.22
64362;BME280;50685;53.346;-6.296;2023-02-22T11:45:36;101416.22;;;10.21;54.15
64362;BME280;50685;53.346;-6.296;2023-02-22T11:48:06;101418.81;;;10.60;53.19
64362;BME280;50685;53.346;-6.296;2023-02-22T11:53:04;101425.91;;;10.52;52.56
64362;BME280;50685;53.346;-6.296;2023-02-22T12:01:14;101434.75;;;10.54;51.57
64362;BME280;50685;53.346;-6.296;2023-02-22T12:09:34;101446.25;;;10.19;53.34
64362;BME280;50685;53.346;-6.296;2023-02-22T12:12:14;101445.38;;;10.18;53.53
64362;BME280;50685;53.346;-6.296;2023-02-22T12:15:05;101444.50;;;10.13;53.76
64362;BME280;50685;53.346;-6.296;2023-02-22T12:20:22;101438.31;;;10.28;53.45
64362;BME280;50685;53.346;-6.296;2023-02-22T12:25:27;101457.75;;;10.45;53.25
64362;BME280;50685;53.346;-6.296;2023-02-22T12:28:00;101455.94;;;10.61;53.38
64362;BME280;50685;53.346;-6.296;2023-02-22T12:30:34;101448.91;;;10.57;52.56
64362;BME280;50685;53.346;-6.296;2023-02-22T12:33:04;101443.63;;;10.50;53.46
64362;BME280;50685;53.346;-6.296;2023-02-22T12:35:32;101459.47;;;10.73;52.73
64362;BME280;50685;53.346;-6.296;2023-02-22T12:40:38;101451.50;;;10.81;52.40
64362;BME280;50685;53.346;-6.296;2023-02-22T12:45:50;101457.69;;;10.73;52.75
64362;BME280;50685;53.346;-6.296;2023-02-22T12:51:18;101464.78;;;10.67;52.40
64362;BME280;50685;53.346;-6.296;2023-02-22T12:56:26;101461.25;;;10.66;52.80
64362;BME280;50685;53.346;-6.296;2023-02-22T12:59:01;101470.09;;;10.74;52.61
64362;BME280;50685;53.346;-6.296;2023-02-22T13:01:33;101462.97;;;10.89;51.19
64362;BME280;50685;53.346;-6.296;2023-02-22T13:04:00;101459.44;;;10.82;49.46
64362;BME280;50685;53.346;-6.296;2023-02-22T13:09:06;101475.38;;;10.85;49.76
64362;BME280;50685;53.346;-6.296;2023-02-22T13:19:37;101472.75;;;10.59;49.71
64362;BME280;50685;53.346;-6.296;2023-02-22T13:27:12;101478.06;;;10.64;50.54
64362;BME280;50685;53.346;-6.296;2023-02-22T13:29:40;101478.03;;;10.71;50.04
64362;BME280;50685;53.346;-6.296;2023-02-22T13:52:18;101501.03;;;9.81;52.73
64362;BME280;50685;53.346;-6.296;2023-02-22T13:57:41;101497.50;;;9.97;52.79
64362;BME280;50685;53.346;-6.296;2023-02-22T14:02:58;101506.31;;;9.84;52.51
64362;BME280;50685;53.346;-6.296;2023-02-22T14:14:10;101516.91;;;9.76;53.33
64362;BME280;50685;53.346;-6.296;2023-02-22T14:19:58;101515.16;;;9.92;52.86
64362;BME280;50685;53.346;-6.296;2023-02-22T14:22:52;101521.31;;;9.87;53.22
64362;BME280;50685;53.346;-6.296;2023-02-22T14:25:38;101519.59;;;10.01;53.00
64362;BME280;50685;53.346;-6.296;2023-02-22T14:31:15;101530.19;;;10.06;53.40
64362;BME280;50685;53.346;-6.296;2023-02-22T14:34:39;101521.34;;;10.04;53.04
64362;BME280;50685;53.346;-6.296;2023-02-22T14:39:41;101528.41;;;9.85;54.05
64362;BME280;50685;53.346;-6.296;2023-02-22T14:42:13;101530.19;;;9.86;54.12
64362;BME280;50685;53.346;-6.296;2023-02-22T14:47:28;101534.59;;;9.84;54.41
64362;BME280;50685;53.346;-6.296;2023-02-22T14:49:58;101535.47;;;9.86;54.30
64362;BME280;50685;53.346;-6.296;2023-02-22T14:52:27;101539.88;;;9.93;54.28
64362;BME280;50685;53.346;-6.296;2023-02-22T14:55:00;101541.66;;;9.91;54.43
64362;BME280;50685;53.346;-6.296;2023-02-22T15:00:11;101542.59;;;10.19;52.94
64362;BME280;50685;53.346;-6.296;2023-02-22T15:02:47;101540.81;;;10.17;53.10
64362;BME280;50685;53.346;-6.296;2023-02-22T15:05:14;101545.22;;;10.11;53.21
64362;BME280;50685;53.346;-6.296;2023-02-22T15:07:47;101547.00;;;10.20;53.25
64362;BME280;50685;53.346;-6.296;2023-02-22T15:10:15;101550.53;;;10.28;52.65
64362;BME280;50685;53.346;-6.296;2023-02-22T15:12:44;101554.13;;;10.40;52.34
64362;BME280;50685;53.346;-6.296;2023-02-22T15:15:19;101554.09;;;10.49;52.14
64362;BME280;50685;53.346;-6.296;2023-02-22T15:17:51;101555.88;;;10.44;51.74
64362;BME280;50685;53.346;-6.296;2023-02-22T15:20:18;101559.41;;;10.68;51.16
64362;BME280;50685;53.346;-6.296;2023-02-22T15:22:50;101556.72;;;10.91;50.43
64362;BME280;50685;53.346;-6.296;2023-02-22T15:25:17;101558.47;;;11.04;50.46
64362;BME280;50685;53.346;-6.296;2023-02-22T15:27:47;101548.72;;;11.08;49.55
64362;BME280;50685;53.346;-6.296;2023-02-22T15:30:18;101549.63;;;11.01;50.43
64362;BME280;50685;53.346;-6.296;2023-02-22T15:32:44;101566.44;;;10.97;49.71
64362;BME280;50685;53.346;-6.296;2023-02-22T15:37:44;101562.94;;;10.76;50.17
64362;BME280;50685;53.346;-6.296;2023-02-22T15:40:16;101559.41;;;10.77;50.15
64362;BME280;50685;53.346;-6.296;2023-02-22T15:42:43;101568.22;;;10.95;49.47
64362;BME280;50685;53.346;-6.296;2023-02-22T15:45:11;101563.72;;;11.18;49.22
64362;BME280;50685;53.346;-6.296;2023-02-22T15:47:38;101561.91;;;11.33;48.09
64362;BME280;50685;53.346;-6.296;2023-02-22T15:50:21;101559.13;;;11.64;47.93
64362;BME280;50685;53.346;-6.296;2023-02-22T15:52:58;101560.78;;;11.83;47.29
64362;BME280;50685;53.346;-6.296;2023-02-22T15:55:26;101553.69;;;11.87;47.10
64362;BME280;50685;53.346;-6.296;2023-02-22T15:57:52;101556.41;;;11.74;47.01
64362;BME280;50685;53.346;-6.296;2023-02-22T16:00:19;101559.19;;;11.54;46.73
64362;BME280;50685;53.346;-6.296;2023-02-22T16:02:45;101556.50;;;11.61;47.50
64362;BME280;50685;53.346;-6.296;2023-02-22T16:05:12;101567.03;;;11.74;46.56
64362;BME280;50685;53.346;-6.296;2023-02-22T16:07:38;101574.84;;;12.09;46.07
64362;BME280;50685;53.346;-6.296;2023-02-22T16:10:15;101560.59;;;12.22;45.79
64362;BME280;50685;53.346;-6.296;2023-02-22T16:12:45;101566.94;;;11.98;45.15
64362;BME280;50685;53.346;-6.296;2023-02-22T16:15:18;101574.16;;;11.72;45.94
64362;BME280;50685;53.346;-6.296;2023-02-22T16:17:44;101570.81;;;11.13;46.88
64362;BME280;50685;53.346;-6.296;2023-02-22T16:22:35;101593.88;;;10.41;49.47
64362;BME280;50685;53.346;-6.296;2023-02-22T16:25:11;101591.16;;;10.15;51.34
64362;BME280;50685;53.346;-6.296;2023-02-22T16:27:41;101610.50;;;9.80;53.46
64362;BME280;50685;53.346;-6.296;2023-02-22T16:32:43;101617.41;;;9.41;55.22
64362;BME280;50685;53.346;-6.296;2023-02-22T16:35:09;101619.06;;;9.26;55.72
64362;BME280;50685;53.346;-6.296;2023-02-22T16:37:44;101624.38;;;9.25;56.09
64362;BME280;50685;53.346;-6.296;2023-02-22T16:40:14;101625.38;;;9.44;54.85
64362;BME280;50685;53.346;-6.296;2023-02-22T16:42:43;101633.31;;;9.47;55.13
64362;BME280;50685;53.346;-6.296;2023-02-22T16:45:14;101634.19;;;9.43;55.56
64362;BME280;50685;53.346;-6.296;2023-02-22T16:47:40;101635.03;;;9.36;55.50
64362;BME280;50685;53.346;-6.296;2023-02-22T16:50:09;101632.34;;;9.32;55.96
64362;BME280;50685;53.346;-6.296;2023-02-22T16:52:35;101638.50;;;9.28;56.26
64362;BME280;50685;53.346;-6.296;2023-02-22T16:55:03;101641.19;;;9.36;56.42
64362;BME280;50685;53.346;-6.296;2023-02-22T16:57:28;101643.81;;;9.28;56.31
64362;BME280;50685;53.346;-6.296;2023-02-22T17:00:00;101642.03;;;9.29;56.30
64362;BME280;50685;53.346;-6.296;2023-02-22T17:02:32;101642.03;;;9.27;56.26
64362;BME280;50685;53.346;-6.296;2023-02-22T17:05:07;101650.81;;;9.19;56.15
64362;BME280;50685;53.346;-6.296;2023-02-22T17:07:40;101652.50;;;9.09;56.70
64362;BME280;50685;53.346;-6.296;2023-02-22T17:10:13;101657.75;;;9.03;57.02
64362;BME280;50685;53.346;-6.296;2023-02-22T17:19:15;101683.34;;;9.04;57.54
64362;BME280;50685;53.346;-6.296;2023-02-22T17:21:40;101679.78;;;9.00;57.62
64362;BME280;50685;53.346;-6.296;2023-02-22T17:27:34;101689.34;;;8.87;58.38
64362;BME280;50685;53.346;-6.296;2023-02-22T17:30:02;101692.75;;;8.74;57.45
64362;BME280;50685;53.346;-6.296;2023-02-22T17:32:28;101688.28;;;8.65;57.21
64362;BME280;50685;53.346;-6.296;2023-02-22T17:37:55;101699.59;;;8.48;57.69
64362;BME280;50685;53.346;-6.296;2023-02-22T17:40:20;101710.00;;;8.38;57.61
64362;BME280;50685;53.346;-6.296;2023-02-22T17:42:46;101706.38;;;8.28;58.27
64362;BME280;50685;53.346;-6.296;2023-02-22T17:48:27;101720.34;;;8.17;59.00
64362;BME280;50685;53.346;-6.296;2023-02-22T17:50:58;101732.63;;;8.14;59.02
64362;BME280;50685;53.346;-6.296;2023-02-22T17:53:31;101733.59;;;8.20;59.91
64362;BME280;50685;53.346;-6.296;2023-02-22T17:55:56;101749.50;;;8.25;60.03
64362;BME280;50685;53.346;-6.296;2023-02-22T17:58:22;101764.44;;;8.23;61.82
64362;BME280;50685;53.346;-6.296;2023-02-22T18:00:54;101772.13;;;8.03;64.41
64362;BME280;50685;53.346;-6.296;2023-02-22T18:03:23;101776.16;;;7.78;66.15
64362;BME280;50685;53.346;-6.296;2023-02-22T18:05:52;101764.28;;;7.48;68.06
64362;BME280;50685;53.346;-6.296;2023-02-22T18:11:36;101744.47;;;7.18;69.14
64362;BME280;50685;53.346;-6.296;2023-02-22T18:14:13;101750.50;;;7.12;68.93
64362;BME280;50685;53.346;-6.296;2023-02-22T18:17:08;101762.59;;;6.99;69.38
64362;BME280;50685;53.346;-6.296;2023-02-22T18:20:02;101767.81;;;6.95;69.54
64362;BME280;50685;53.346;-6.296;2023-02-22T18:22:38;101772.16;;;6.93;70.14
64362;BME280;50685;53.346;-6.296;2023-02-22T18:25:13;101782.50;;;6.82;70.33
64362;BME280;50685;53.346;-6.296;2023-02-22T18:27:41;101787.69;;;6.77;71.17
64362;BME280;50685;53.346;-6.296;2023-02-22T18:30:10;101796.34;;;6.70;71.29
64362;BME280;50685;53.346;-6.296;2023-02-22T18:32:36;101808.50;;;6.63;71.26
64362;BME280;50685;53.346;-6.296;2023-02-22T18:35:01;101804.09;;;6.62;70.81
64362;BME280;50685;53.346;-6.296;2023-02-22T18:37:27;101806.59;;;6.56;71.34
64362;BME280;50685;53.346;-6.296;2023-02-22T18:39:53;101805.63;;;6.51;70.88
64362;BME280;50685;53.346;-6.296;2023-02-22T18:42:20;101806.34;;;6.42;72.36
64362;BME280;50685;53.346;-6.296;2023-02-22T18:44:47;101812.31;;;6.33;72.38
64362;BME280;50685;53.346;-6.296;2023-02-22T18:47:12;101817.50;;;6.30;73.30
64362;BME280;50685;53.346;-6.296;2023-02-22T18:49:38;101814.94;;;6.33;73.20
64362;BME280;50685;53.346;-6.296;2023-02-22T18:52:06;101833.28;;;6.30;73.29
64362;BME280;50685;53.346;-6.296;2023-02-22T18:54:36;101826.31;;;6.32;73.47
64362;BME280;50685;53.346;-6.296;2023-02-22T19:17:43;101865.97;;;6.38;73.02
64362;BME280;50685;53.346;-6.296;2023-02-22T19:20:12;101866.94;;;6.42;72.95
64362;BME280;50685;53.346;-6.296;2023-02-22T19:22:37;101873.13;;;6.44;72.93
64362;BME280;50685;53.346;-6.296;2023-02-22T19:25:03;101870.53;;;6.46;72.59
64362;BME280;50685;53.346;-6.296;2023-02-22T19:30:04;101869.34;;;6.31;72.99
64362;BME280;50685;53.346;-6.296;2023-02-22T19:32:29;101878.13;;;6.32;73.61
64362;BME280;50685;53.346;-6.296;2023-02-22T19:35:05;101879.03;;;6.32;73.30
64362;BME280;50685;53.346;-6.296;2023-02-22T19:37:33;101886.00;;;6.32;73.57
64362;BME280;50685;53.346;-6.296;2023-02-22T19:40:03;101885.22;;;6.34;73.26
64362;BME280;50685;53.346;-6.296;2023-02-22T19:42:32;101887.94;;;6.39;73.01
64362;BME280;50685;53.346;-6.296;2023-02-22T19:44:58;101890.66;;;6.42;73.09
64362;BME280;50685;53.346;-6.296;2023-02-22T19:47:26;101891.63;;;6.46;72.99
64362;BME280;50685;53.346;-6.296;2023-02-22T19:49:51;101892.50;;;6.46;72.35
64362;BME280;50685;53.346;-6.296;2023-02-22T19:52:19;101889.91;;;6.48;72.31
64362;BME280;50685;53.346;-6.296;2023-02-22T19:54:45;101895.13;;;6.46;72.31
64362;BME280;50685;53.346;-6.296;2023-02-22T20:00:00;101914.63;;;6.53;71.61
64362;BME280;50685;53.346;-6.296;2023-02-22T20:02:34;101909.22;;;6.48;72.19
64362;BME280;50685;53.346;-6.296;2023-02-22T20:05:00;101923.38;;;6.52;72.08
64362;BME280;50685;53.346;-6.296;2023-02-22T20:07:25;101916.34;;;6.52;71.93
64362;BME280;50685;53.346;-6.296;2023-02-22T20:09:51;101917.16;;;6.50;71.68
64362;BME280;50685;53.346;-6.296;2023-02-22T20:12:16;101922.28;;;6.42;71.93
64362;BME280;50685;53.346;-6.296;2023-02-22T20:14:41;101921.31;;;6.38;71.84
64362;BME280;50685;53.346;-6.296;2023-02-22T20:17:08;101934.31;;;6.31;72.09
64362;BME280;50685;53.346;-6.296;2023-02-22T20:19:34;101936.84;;;6.26;72.34
64362;BME280;50685;53.346;-6.296;2023-02-22T20:22:01;101929.72;;;6.22;72.53
64362;BME280;50685;53.346;-6.296;2023-02-22T20:24:27;101929.63;;;6.17;72.56
64362;BME280;50685;53.346;-6.296;2023-02-22T20:26:58;101925.16;;;6.15;73.12
64362;BME280;50685;53.346;-6.296;2023-02-22T20:29:24;101934.75;;;6.13;73.25
64362;BME280;50685;53.346;-6.296;2023-02-22T20:31:56;101928.69;;;6.15;73.33
64362;BME280;50685;53.346;-6.296;2023-02-22T20:34:22;101939.25;;;6.17;73.32
64362;BME280;50685;53.346;-6.296;2023-02-22T20:36:47;101948.13;;;6.20;73.03
64362;BME280;50685;53.346;-6.296;2023-02-22T20:39:13;101949.75;;;6.15;72.91
64362;BME280;50685;53.346;-6.296;2023-02-22T20:41:42;101941.78;;;6.12;73.01
64362;BME280;50685;53.346;-6.296;2023-02-22T20:52:56;101956.13;;;6.25;72.54
64362;BME280;50685;53.346;-6.296;2023-02-22T21:01:51;101971.22;;;6.31;71.92
64362;BME280;50685;53.346;-6.296;2023-02-22T21:04:17;101971.97;;;6.26;72.03
64362;BME280;50685;53.346;-6.296;2023-02-22T21:06:43;101985.09;;;6.25;72.46
64362;BME280;50685;53.346;-6.296;2023-02-22T21:09:11;101984.16;;;6.23;72.43
64362;BME280;50685;53.346;-6.296;2023-02-22T21:11:38;101976.13;;;6.17;72.43
64362;BME280;50685;53.346;-6.296;2023-02-22T21:14:04;101980.38;;;6.11;72.69
64362;BME280;50685;53.346;-6.296;2023-02-22T21:16:30;101979.41;;;6.08;72.35
64362;BME280;50685;53.346;-6.296;2023-02-22T21:18:57;101979.38;;;6.05;72.77
64362;BME280;50685;53.346;-6.296;2023-02-22T21:21:23;101995.88;;;5.99;72.90
64362;BME280;50685;53.346;-6.296;2023-02-22T21:23:50;102005.56;;;6.00;72.84
64362;BME280;50685;53.346;-6.296;2023-02-22T21:26:16;101997.66;;;6.00;72.72
64362;BME280;50685;53.346;-6.296;2023-02-22T21:28:42;102006.50;;;6.02;72.30
64362;BME280;50685;53.346;-6.296;2023-02-22T21:31:08;102011.84;;;6.05;71.99
64362;BME280;50685;53.346;-6.296;2023-02-22T21:33:35;102009.25;;;6.07;72.42
64362;BME280;50685;53.346;-6.296;2023-02-22T21:36:02;102010.16;;;6.07;72.64
64362;BME280;50685;53.346;-6.296;2023-02-22T21:38:36;102017.19;;;6.08;72.35
64362;BME280;50685;53.346;-6.296;2023-02-22T21:41:02;102018.09;;;6.10;72.10
64362;BME280;50685;53.346;-6.296;2023-02-22T21:43:28;102020.72;;;6.09;72.06
64362;BME280;50685;53.346;-6.296;2023-02-22T21:45:53;102022.41;;;6.07;71.97
64362;BME280;50685;53.346;-6.296;2023-02-22T21:48:19;102023.19;;;6.03;72.26